Time;durP1;ratioP1;P1;durP2;ratioP2;P2;SDS_P1;SDS_P2;PMS_P1;PMS_P2;Temp;Humidity;BMP_temperature;BMP_pressure;BME280_temperature;BME280_humidity;BME280_pressure;Samples;Min_cycle;Max_cycle;Signal;HPM_P1;HPM_P2
2023/11/23 00:01:18;;;;;;;10.53;5.13;;;1.20;99.90;;;;;;4237154;27;20440;-79
2023/11/23 00:03:20;;;;;;;9.87;5.43;;;1.20;99.90;;;;;;4224949;28;20451;-78
2023/11/23 00:05:22;;;;;;;11.00;5.30;;;1.20;99.90;;;;;;4240499;27;20498;-80
2023/11/23 00:07:24;;;;;;;11.53;5.10;;;1.30;99.90;;;;;;4234095;27;20478;-79
2023/11/23 00:09:26;;;;;;;12.20;4.97;;;1.30;99.90;;;;;;4238108;27;20811;-80
2023/11/23 00:11:28;;;;;;;10.73;4.87;;;1.30;99.90;;;;;;4236108;27;20465;-80
2023/11/23 00:13:31;;;;;;;7.80;4.20;;;1.40;99.90;;;;;;4238704;27;20502;-81
2023/11/23 00:15:32;;;;;;;9.13;5.10;;;1.40;99.90;;;;;;4240300;27;20445;-81
2023/11/23 00:17:34;;;;;;;9.20;4.23;;;1.40;99.90;;;;;;4241467;27;20899;-79
2023/11/23 00:19:36;;;;;;;10.53;4.93;;;1.40;99.90;;;;;;4239956;27;20204;-80
2023/11/23 00:21:37;;;;;;;6.97;4.20;;;1.40;99.90;;;;;;4241804;27;20461;-80
2023/11/23 00:23:41;;;;;;;9.60;3.87;;;1.40;99.90;;;;;;4244537;27;20439;-81
2023/11/23 00:25:44;;;;;;;9.90;4.53;;;1.50;99.90;;;;;;4237475;27;20296;-80
2023/11/23 00:27:46;;;;;;;11.17;4.30;;;1.50;99.90;;;;;;4243137;27;20517;-81
2023/11/23 00:29:49;;;;;;;9.33;5.17;;;1.60;99.90;;;;;;4242628;27;20452;-81
2023/11/23 00:31:53;;;;;;;8.33;4.13;;;1.70;99.90;;;;;;4240888;27;20445;-79
2023/11/23 00:33:54;;;;;;;8.50;4.40;;;1.50;99.90;;;;;;4240338;27;20665;-79
2023/11/23 00:35:56;;;;;;;10.63;4.53;;;1.50;99.90;;;;;;4239247;27;20928;-79
2023/11/23 00:37:58;;;;;;;6.53;3.80;;;1.60;99.90;;;;;;4224857;27;20306;-79
2023/11/23 00:40:00;;;;;;;8.73;4.50;;;1.80;99.90;;;;;;4249919;27;20468;-79
2023/11/23 00:42:03;;;;;;;8.80;4.50;;;2.20;99.90;;;;;;4243518;27;20451;-79
2023/11/23 00:44:05;;;;;;;8.00;4.40;;;1.60;99.90;;;;;;4238573;27;20492;-78
2023/11/23 00:46:10;;;;;;;9.23;3.97;;;1.60;99.90;;;;;;4240775;27;20845;-79
2023/11/23 00:48:12;;;;;;;9.83;4.23;;;1.60;99.90;;;;;;4233683;27;20477;-78
2023/11/23 00:50:14;;;;;;;6.63;3.73;;;1.60;99.90;;;;;;4236995;27;20438;-79
2023/11/23 00:52:16;;;;;;;6.93;4.00;;;1.70;99.90;;;;;;4234626;27;20443;-79
2023/11/23 00:54:20;;;;;;;7.07;3.77;;;1.70;99.90;;;;;;4238379;27;20980;-79
2023/11/23 00:56:24;;;;;;;7.63;3.97;;;1.80;99.90;;;;;;4222580;28;20443;-79
2023/11/23 00:58:26;;;;;;;5.50;3.53;;;1.70;99.90;;;;;;4241736;27;20453;-79
2023/11/23 01:00:29;;;;;;;7.53;3.93;;;1.70;99.90;;;;;;4236545;27;20447;-79
2023/11/23 01:02:33;;;;;;;8.53;3.87;;;1.80;99.90;;;;;;4238294;27;20517;-79
2023/11/23 01:04:37;;;;;;;6.07;3.63;;;1.80;99.90;;;;;;4220669;28;20554;-79
2023/11/23 01:06:41;;;;;;;8.07;3.73;;;1.80;99.90;;;;;;4244216;27;20450;-80
2023/11/23 01:08:43;;;;;;;7.43;3.97;;;2.00;99.90;;;;;;4244724;27;20473;-81
2023/11/23 01:10:45;;;;;;;7.07;3.20;;;1.80;99.90;;;;;;4258657;27;20464;-81
2023/11/23 01:12:48;;;;;;;8.10;3.80;;;1.90;99.90;;;;;;4255497;27;20452;-81
2023/11/23 01:14:50;;;;;;;6.33;3.40;;;1.90;99.90;;;;;;4252176;27;20460;-79
2023/11/23 01:16:51;;;;;;;3.43;2.33;;;1.90;99.90;;;;;;4242738;27;20852;-80
2023/11/23 01:18:55;;;;;;;6.70;3.53;;;1.90;99.90;;;;;;4238732;27;20421;-79
2023/11/23 01:20:57;;;;;;;6.37;3.03;;;2.80;99.90;;;;;;4243540;27;20902;-80
2023/11/23 01:23:02;;;;;;;6.13;3.30;;;2.00;99.90;;;;;;4240783;27;20514;-79
2023/11/23 01:25:06;;;;;;;5.77;2.90;;;1.90;99.90;;;;;;4247167;27;20444;-80
2023/11/23 01:27:07;;;;;;;8.00;3.53;;;1.90;99.90;;;;;;4243612;27;20456;-80
2023/11/23 01:29:09;;;;;;;5.20;3.00;;;2.00;99.90;;;;;;4242240;27;20482;-80
2023/11/23 01:31:11;;;;;;;6.53;3.30;;;2.00;99.90;;;;;;4243213;27;20204;-81
2023/11/23 01:33:14;;;;;;;5.63;2.97;;;2.10;99.90;;;;;;4238758;27;20481;-81
2023/11/23 01:35:20;;;;;;;6.37;2.87;;;2.10;99.90;;;;;;4236678;27;20457;-81
2023/11/23 01:37:21;;;;;;;6.80;3.47;;;2.10;99.90;;;;;;4238165;27;20472;-80
2023/11/23 01:39:23;;;;;;;6.57;3.10;;;2.10;99.90;;;;;;4245376;27;20431;-81
2023/11/23 01:41:27;;;;;;;5.27;2.97;;;2.10;99.90;;;;;;4242921;27;20294;-80
2023/11/23 01:43:31;;;;;;;4.47;2.83;;;2.10;99.90;;;;;;4237119;27;21009;-80
2023/11/23 01:45:34;;;;;;;4.50;2.60;;;2.10;99.90;;;;;;4241880;27;20476;-79
2023/11/23 01:47:38;;;;;;;4.80;2.87;;;2.10;99.90;;;;;;4245380;27;20472;-78
2023/11/23 01:49:42;;;;;;;5.10;2.73;;;2.20;99.90;;;;;;4235823;27;20856;-78
2023/11/23 01:51:45;;;;;;;8.33;3.00;;;2.20;99.90;;;;;;4232908;27;20446;-78
2023/11/23 01:53:48;;;;;;;4.53;2.40;;;2.80;99.90;;;;;;4247174;27;20899;-78
2023/11/23 01:55:53;;;;;;;3.97;2.60;;;2.20;99.90;;;;;;4235031;27;20803;-78
2023/11/23 01:57:57;;;;;;;4.43;2.63;;;2.20;99.90;;;;;;4240639;27;20462;-77
2023/11/23 01:59:59;;;;;;;5.13;2.70;;;2.20;99.90;;;;;;4230369;27;20511;-78
2023/11/23 02:02:02;;;;;;;7.17;2.90;;;2.30;99.90;;;;;;4235029;27;20445;-78
2023/11/23 02:04:05;;;;;;;5.37;2.53;;;2.30;99.90;;;;;;4239392;27;20463;-75
2023/11/23 02:06:07;;;;;;;3.97;2.50;;;2.30;99.90;;;;;;4235110;27;20919;-75
2023/11/23 02:08:09;;;;;;;6.37;2.93;;;2.40;99.90;;;;;;4234783;27;20525;-76
2023/11/23 02:10:12;;;;;;;5.23;2.37;;;2.40;99.90;;;;;;4234285;27;20438;-77
2023/11/23 02:12:14;;;;;;;5.03;2.50;;;2.50;99.90;;;;;;4230733;27;20486;-78
2023/11/23 02:14:16;;;;;;;6.00;2.70;;;2.50;99.90;;;;;;4239623;27;20496;-76
2023/11/23 02:16:18;;;;;;;3.80;2.30;;;2.50;99.90;;;;;;4238943;27;20448;-76
2023/11/23 02:18:19;;;;;;;7.13;2.80;;;2.50;99.90;;;;;;4238640;27;20481;-77
2023/11/23 02:20:21;;;;;;;3.73;2.33;;;2.50;99.90;;;;;;4233782;27;20945;-78
2023/11/23 02:22:23;;;;;;;7.43;2.90;;;2.50;99.90;;;;;;4232634;27;20457;-78
2023/11/23 02:24:25;;;;;;;4.97;2.33;;;2.50;99.90;;;;;;4239565;27;21118;-77
2023/11/23 02:26:27;;;;;;;3.20;2.30;;;2.60;99.90;;;;;;4235273;27;20442;-77
2023/11/23 02:28:29;;;;;;;4.00;2.40;;;2.60;99.90;;;;;;4238218;27;21042;-77
2023/11/23 02:30:31;;;;;;;4.97;2.63;;;2.60;99.90;;;;;;4237586;27;20450;-76
2023/11/23 02:32:33;;;;;;;4.43;2.50;;;2.60;99.90;;;;;;4236286;27;20445;-75
2023/11/23 02:34:39;;;;;;;4.03;2.37;;;2.60;99.90;;;;;;4237037;27;20434;-77
2023/11/23 02:36:40;;;;;;;5.23;2.10;;;2.60;99.90;;;;;;4216300;28;20451;-76
2023/11/23 02:38:42;;;;;;;6.07;2.60;;;2.60;99.90;;;;;;4240645;27;20490;-77
2023/11/23 02:40:45;;;;;;;4.13;2.30;;;2.60;99.90;;;;;;4233584;27;20441;-77
2023/11/23 02:42:47;;;;;;;3.83;2.50;;;2.60;99.90;;;;;;4238182;27;21869;-75
2023/11/23 02:44:48;;;;;;;3.90;2.13;;;2.70;99.90;;;;;;4220149;28;20455;-77
2023/11/23 02:46:49;;;;;;;5.40;2.70;;;2.70;99.90;;;;;;4241205;27;20457;-75
2023/11/23 02:48:50;;;;;;;4.17;2.20;;;2.70;99.90;;;;;;4236472;27;20231;-77
2023/11/23 02:50:53;;;;;;;3.67;2.20;;;2.70;99.90;;;;;;4233432;27;20441;-77
2023/11/23 02:52:54;;;;;;;5.47;2.63;;;2.70;99.90;;;;;;4241682;27;20203;-76
2023/11/23 02:54:56;;;;;;;4.20;2.33;;;2.70;99.90;;;;;;4240663;27;20555;-77
2023/11/23 02:56:59;;;;;;;4.73;2.30;;;2.70;99.90;;;;;;4241147;27;20231;-77
2023/11/23 02:59:02;;;;;;;5.33;2.73;;;2.80;99.90;;;;;;4222558;28;20460;-77
2023/11/23 03:01:05;;;;;;;4.77;2.40;;;2.70;99.90;;;;;;4235916;28;20439;-76
2023/11/23 03:03:06;;;;;;;3.73;2.23;;;2.70;99.90;;;;;;4233893;28;20446;-77
2023/11/23 03:05:10;;;;;;;3.97;2.10;;;2.70;99.90;;;;;;4238590;28;20441;-80
2023/11/23 03:07:12;;;;;;;2.90;2.00;;;2.70;99.90;;;;;;4234675;28;20312;-76
2023/11/23 03:09:14;;;;;;;3.93;2.40;;;2.70;99.90;;;;;;4228409;28;20474;-75
2023/11/23 03:11:20;;;;;;;5.23;2.17;;;2.80;99.90;;;;;;4236052;27;20518;-76
2023/11/23 03:13:24;;;;;;;4.13;2.13;;;2.70;99.90;;;;;;4237790;27;20449;-76
2023/11/23 03:15:26;;;;;;;3.70;2.30;;;2.80;99.90;;;;;;4229860;28;20498;-76
2023/11/23 03:17:27;;;;;;;4.97;2.53;;;2.80;99.90;;;;;;4231794;27;20485;-76
2023/11/23 03:19:29;;;;;;;4.80;2.50;;;2.80;99.90;;;;;;4235453;27;20441;-76
2023/11/23 03:21:31;;;;;;;4.23;2.30;;;2.70;99.90;;;;;;4222602;28;20655;-79
2023/11/23 03:23:33;;;;;;;6.10;2.50;;;2.70;99.90;;;;;;4241204;27;20449;-77
2023/11/23 03:25:35;;;;;;;5.67;2.30;;;2.70;99.90;;;;;;4236600;28;20469;-76
2023/11/23 03:27:38;;;;;;;3.57;2.33;;;2.70;99.90;;;;;;4222555;28;20470;-76
2023/11/23 03:29:41;;;;;;;4.93;2.40;;;2.70;99.90;;;;;;4240928;27;21066;-78
2023/11/23 03:31:44;;;;;;;5.63;2.43;;;2.70;99.90;;;;;;4246873;27;20461;-76
2023/11/23 03:33:46;;;;;;;3.40;2.13;;;2.70;99.90;;;;;;4242686;27;20449;-78
2023/11/23 03:35:50;;;;;;;5.33;2.20;;;2.70;99.90;;;;;;4245650;27;20442;-76
2023/11/23 03:37:51;;;;;;;3.50;2.30;;;2.80;99.90;;;;;;4248906;27;20453;-76
2023/11/23 03:39:55;;;;;;;4.13;2.20;;;2.80;99.90;;;;;;4249620;27;20464;-77
2023/11/23 03:41:57;;;;;;;3.80;2.20;;;2.80;99.90;;;;;;4247570;27;20495;-78
2023/11/23 03:43:59;;;;;;;3.77;2.13;;;2.80;99.90;;;;;;4244498;27;20472;-78
2023/11/23 03:46:02;;;;;;;4.37;2.00;;;2.90;99.90;;;;;;4243367;27;20441;-79
2023/11/23 03:48:05;;;;;;;3.83;2.07;;;2.90;99.90;;;;;;4239106;27;20490;-78
2023/11/23 03:50:08;;;;;;;4.57;2.33;;;2.90;99.90;;;;;;4242233;27;20473;-78
2023/11/23 03:52:09;;;;;;;4.20;2.10;;;2.90;99.90;;;;;;4240482;27;20503;-76
2023/11/23 03:54:14;;;;;;;4.37;2.53;;;2.90;99.90;;;;;;4245320;27;20446;-78
2023/11/23 03:56:16;;;;;;;4.73;2.00;;;2.90;99.90;;;;;;4245415;27;20452;-78
2023/11/23 03:58:17;;;;;;;4.73;1.83;;;2.90;99.90;;;;;;4250274;27;20463;-77
2023/11/23 04:00:21;;;;;;;5.10;2.60;;;2.90;99.90;;;;;;4241765;27;20468;-79
2023/11/23 04:02:24;;;;;;;3.53;2.00;;;2.90;99.90;;;;;;4246182;27;20230;-79
2023/11/23 04:04:26;;;;;;;3.00;1.83;;;3.00;99.90;;;;;;4246985;27;20437;-77
2023/11/23 04:06:28;;;;;;;4.53;1.77;;;3.00;99.90;;;;;;4248430;27;20792;-78
2023/11/23 04:08:30;;;;;;;4.10;2.03;;;3.00;99.90;;;;;;4249209;27;20496;-76
2023/11/23 04:10:32;;;;;;;4.17;2.20;;;3.10;99.90;;;;;;4249241;27;20504;-77
2023/11/23 04:12:34;;;;;;;4.03;2.20;;;3.10;99.90;;;;;;4255099;27;20442;-78
2023/11/23 04:14:35;;;;;;;4.40;2.20;;;3.10;99.90;;;;;;4251367;27;20442;-79
2023/11/23 04:16:39;;;;;;;3.60;1.93;;;3.10;99.90;;;;;;4252125;27;20458;-78
2023/11/23 04:18:44;;;;;;;3.83;2.17;;;3.20;99.90;;;;;;4251841;27;20798;-79
2023/11/23 04:20:46;;;;;;;5.77;2.20;;;3.30;99.90;;;;;;4248503;27;20438;-78
2023/11/23 04:22:48;;;;;;;4.87;2.00;;;3.20;99.90;;;;;;4242060;27;20966;-78
2023/11/23 04:24:50;;;;;;;3.50;2.00;;;3.30;99.90;;;;;;4243337;27;20492;-79
2023/11/23 04:26:52;;;;;;;4.40;2.03;;;3.30;99.90;;;;;;4237783;27;20472;-79
2023/11/23 04:28:57;;;;;;;3.73;2.10;;;3.30;99.90;;;;;;4234869;27;20442;-78
2023/11/23 04:30:59;;;;;;;2.87;2.00;;;3.30;99.90;;;;;;4237954;27;20840;-77
2023/11/23 04:33:01;;;;;;;4.97;2.17;;;3.30;99.90;;;;;;4220828;27;20451;-79
2023/11/23 04:35:05;;;;;;;2.53;1.93;;;3.30;99.90;;;;;;4238356;27;20493;-78
2023/11/23 04:37:07;;;;;;;4.20;1.90;;;3.30;99.90;;;;;;4239816;27;21120;-78
2023/11/23 04:39:12;;;;;;;6.57;2.40;;;3.30;99.90;;;;;;4236926;27;20838;-78
2023/11/23 04:41:14;;;;;;;4.80;2.27;;;3.30;99.90;;;;;;4225216;28;20981;-78
2023/11/23 04:43:17;;;;;;;3.77;2.00;;;3.30;99.90;;;;;;4241736;27;20430;-79
2023/11/23 04:45:20;;;;;;;3.93;2.40;;;3.30;99.90;;;;;;4245512;27;20441;-78
2023/11/23 04:47:23;;;;;;;3.97;2.20;;;3.40;99.90;;;;;;4237412;27;20468;-77
2023/11/23 04:49:26;;;;;;;4.97;2.37;;;3.40;99.90;;;;;;4237772;27;20485;-77
2023/11/23 04:51:33;;;;;;;3.50;2.00;;;3.40;99.90;;;;;;4242311;27;20461;-79
2023/11/23 04:53:35;;;;;;;4.33;2.50;;;3.40;99.90;;;;;;4238840;27;20449;-79
2023/11/23 04:55:38;;;;;;;4.50;2.33;;;3.50;99.90;;;;;;4236901;27;20444;-79
2023/11/23 04:57:41;;;;;;;3.57;2.27;;;3.50;99.90;;;;;;4237912;27;20832;-79
2023/11/23 04:59:43;;;;;;;4.07;2.10;;;3.50;99.90;;;;;;4242053;27;20438;-78
2023/11/23 05:01:44;;;;;;;5.47;2.03;;;3.50;99.90;;;;;;4246715;27;20453;-76
2023/11/23 05:03:46;;;;;;;2.93;1.90;;;3.70;99.90;;;;;;4236638;27;20449;-75
2023/11/23 05:05:48;;;;;;;4.93;2.07;;;3.50;99.90;;;;;;4242663;27;20665;-76
2023/11/23 05:07:54;;;;;;;4.03;2.10;;;3.50;99.90;;;;;;4241053;27;20461;-78
2023/11/23 05:09:56;;;;;;;3.97;2.10;;;3.50;99.90;;;;;;4234504;27;20464;-75
2023/11/23 05:11:58;;;;;;;3.47;2.10;;;3.50;99.90;;;;;;4238949;27;20443;-76
2023/11/23 05:14:08;;;;;;;3.47;2.27;;;3.50;99.90;;;;;;4240367;27;20435;-77
2023/11/23 05:16:10;;;;;;;3.93;2.33;;;3.60;99.90;;;;;;4241301;27;20465;-78
2023/11/23 05:18:13;;;;;;;4.57;2.57;;;3.60;99.90;;;;;;4239466;27;20477;-78
2023/11/23 05:20:16;;;;;;;5.70;2.60;;;3.60;99.90;;;;;;4243654;27;20812;-76
2023/11/23 05:22:18;;;;;;;6.53;2.63;;;3.70;99.90;;;;;;4237336;27;20454;-77
2023/11/23 05:24:20;;;;;;;4.57;2.10;;;3.70;99.90;;;;;;4238833;27;20450;-77
2023/11/23 05:26:23;;;;;;;5.77;2.50;;;3.70;99.90;;;;;;4234399;27;20439;-77
2023/11/23 05:28:25;;;;;;;4.30;2.30;;;3.70;99.90;;;;;;4242780;27;20503;-77
2023/11/23 05:30:32;;;;;;;5.33;2.60;;;3.70;99.90;;;;;;4235190;27;20573;-77
2023/11/23 05:32:34;;;;;;;9.37;3.07;;;3.80;99.90;;;;;;4241053;27;20442;-77
2023/11/23 05:34:36;;;;;;;5.00;2.77;;;3.90;99.90;;;;;;4238500;27;20460;-76
2023/11/23 05:36:38;;;;;;;5.37;3.00;;;3.80;99.90;;;;;;4242550;27;20951;-76
2023/11/23 05:38:42;;;;;;;5.33;3.03;;;3.80;99.90;;;;;;4238405;27;20444;-77
2023/11/23 05:40:46;;;;;;;7.77;3.20;;;3.80;99.90;;;;;;4233020;27;20853;-76
2023/11/23 05:42:49;;;;;;;8.73;3.50;;;3.90;99.90;;;;;;4231196;27;20467;-77
2023/11/23 05:44:51;;;;;;;5.97;3.53;;;3.90;99.90;;;;;;4239810;27;20442;-76
2023/11/23 05:46:53;;;;;;;6.43;3.50;;;3.90;99.90;;;;;;4241015;27;20492;-77
2023/11/23 05:48:56;;;;;;;6.83;3.23;;;4.00;99.90;;;;;;4238058;27;20529;-76
2023/11/23 05:50:58;;;;;;;4.33;2.70;;;4.00;99.90;;;;;;4233991;27;20481;-78
2023/11/23 05:53:00;;;;;;;5.47;3.07;;;4.00;99.90;;;;;;4238960;27;20442;-78
2023/11/23 05:55:02;;;;;;;5.27;3.00;;;4.00;99.90;;;;;;4242576;27;20447;-76
2023/11/23 05:57:05;;;;;;;7.00;3.43;;;4.00;99.90;;;;;;4234139;27;20540;-79
2023/11/23 05:59:07;;;;;;;7.07;3.50;;;4.10;99.90;;;;;;4230929;27;21037;-77
2023/11/23 06:01:09;;;;;;;6.60;3.50;;;4.10;99.90;;;;;;4233166;27;20438;-76
2023/11/23 06:03:11;;;;;;;5.77;3.10;;;4.10;99.90;;;;;;4237756;27;20497;-76
2023/11/23 06:05:14;;;;;;;5.53;3.03;;;4.10;99.90;;;;;;4242059;27;20975;-76
2023/11/23 06:07:16;;;;;;;6.27;2.93;;;4.20;99.90;;;;;;4239589;27;21051;-76
2023/11/23 06:09:18;;;;;;;5.63;3.13;;;4.20;99.90;;;;;;4234013;27;20435;-76
2023/11/23 06:11:22;;;;;;;7.70;3.47;;;4.20;99.90;;;;;;4236196;27;20479;-75
2023/11/23 06:13:25;;;;;;;8.00;3.20;;;4.20;99.90;;;;;;4237280;27;20814;-77
2023/11/23 06:15:27;;;;;;;6.57;3.50;;;4.20;99.90;;;;;;4241719;27;20443;-75
2023/11/23 06:17:29;;;;;;;5.47;3.00;;;4.20;99.90;;;;;;4238213;27;20479;-76
2023/11/23 06:19:31;;;;;;;6.47;2.97;;;4.20;99.90;;;;;;4239706;27;20471;-77
2023/11/23 06:21:35;;;;;;;4.53;2.77;;;4.20;99.90;;;;;;4234489;27;20459;-76
2023/11/23 06:23:37;;;;;;;8.77;4.00;;;4.20;99.90;;;;;;4231846;27;20448;-77
2023/11/23 06:25:38;;;;;;;7.57;3.40;;;4.20;99.90;;;;;;4234462;27;20245;-78
2023/11/23 06:27:40;;;;;;;10.23;3.03;;;4.30;99.90;;;;;;4237079;27;20460;-78
2023/11/23 06:29:44;;;;;;;6.77;3.47;;;4.30;99.90;;;;;;4236735;27;20614;-80
2023/11/23 06:31:46;;;;;;;7.23;3.20;;;4.30;99.90;;;;;;4234449;27;20446;-77
2023/11/23 06:33:48;;;;;;;5.23;2.90;;;4.40;99.90;;;;;;4235288;27;20892;-79
2023/11/23 06:35:51;;;;;;;5.20;3.00;;;4.30;99.90;;;;;;4235643;27;20459;-79
2023/11/23 06:37:56;;;;;;;5.60;3.20;;;4.30;99.90;;;;;;4229522;27;21039;-79
2023/11/23 06:39:58;;;;;;;6.30;3.23;;;4.30;99.90;;;;;;4236964;27;20504;-79
2023/11/23 06:42:01;;;;;;;10.33;3.50;;;4.30;99.90;;;;;;4238729;27;20442;-79
2023/11/23 06:44:03;;;;;;;5.70;2.83;;;4.40;99.90;;;;;;4236066;28;20456;-79
2023/11/23 06:46:06;;;;;;;5.37;3.20;;;4.40;99.90;;;;;;4238694;27;20927;-79
2023/11/23 06:48:09;;;;;;;5.20;3.07;;;4.40;99.90;;;;;;4223734;28;20541;-78
2023/11/23 06:50:11;;;;;;;7.07;3.33;;;4.40;99.90;;;;;;4244469;27;20470;-79
2023/11/23 06:52:13;;;;;;;8.47;3.60;;;4.80;99.90;;;;;;4236545;28;20511;-78
2023/11/23 06:54:14;;;;;;;7.07;3.67;;;4.40;99.90;;;;;;4238580;28;20446;-78
2023/11/23 06:56:21;;;;;;;6.10;3.07;;;4.50;99.90;;;;;;4247229;27;20443;-84
2023/11/23 06:58:23;;;;;;;6.33;3.00;;;4.50;99.90;;;;;;4240646;27;20450;-82
2023/11/23 07:00:25;;;;;;;10.73;3.70;;;4.80;99.90;;;;;;4242290;27;20439;-80
2023/11/23 07:02:29;;;;;;;8.40;3.67;;;4.50;99.90;;;;;;4239548;27;20450;-80
2023/11/23 07:04:30;;;;;;;5.07;3.20;;;4.50;99.90;;;;;;4241467;28;20505;-80
2023/11/23 07:06:32;;;;;;;5.57;3.40;;;4.60;99.90;;;;;;4236074;27;20546;-80
2023/11/23 07:08:33;;;;;;;7.90;4.37;;;4.60;99.90;;;;;;4238759;27;20473;-80
2023/11/23 07:10:36;;;;;;;7.00;3.60;;;4.30;99.90;;;;;;4242285;27;20467;-80
2023/11/23 07:12:38;;;;;;;7.67;3.57;;;4.60;99.90;;;;;;4249222;27;20446;-81
2023/11/23 07:14:44;;;;;;;9.10;3.50;;;4.60;99.90;;;;;;4241551;27;20440;-80
2023/11/23 07:16:46;;;;;;;7.47;4.00;;;4.70;99.90;;;;;;4244087;27;20499;-80
2023/11/23 07:18:49;;;;;;;7.53;4.10;;;4.70;99.90;;;;;;4241805;27;20465;-80
2023/11/23 07:20:53;;;;;;;10.40;3.93;;;5.10;99.90;;;;;;4243193;27;20444;-82
2023/11/23 07:22:57;;;;;;;7.70;3.50;;;4.80;99.90;;;;;;4238906;27;20440;-83
2023/11/23 07:24:59;;;;;;;8.93;4.37;;;4.80;99.90;;;;;;4241945;27;20866;-83
2023/11/23 07:27:02;;;;;;;8.10;3.27;;;4.80;99.90;;;;;;4246693;27;20510;-80
2023/11/23 07:29:03;;;;;;;5.90;3.10;;;4.80;99.90;;;;;;4242606;27;20436;-82
2023/11/23 07:31:09;;;;;;;7.03;3.57;;;4.80;99.90;;;;;;4245131;27;20512;-81
2023/11/23 07:33:11;;;;;;;9.20;4.10;;;4.90;99.90;;;;;;4249334;27;20447;-82
2023/11/23 07:35:15;;;;;;;6.07;3.47;;;4.90;99.90;;;;;;4250686;27;20846;-81
2023/11/23 07:37:17;;;;;;;6.33;3.20;;;4.90;99.90;;;;;;4249962;27;20455;-82
2023/11/23 07:39:22;;;;;;;7.87;4.23;;;5.00;99.90;;;;;;4244284;27;20987;-82
2023/11/23 07:41:27;;;;;;;7.23;3.30;;;5.00;99.90;;;;;;4251423;27;20893;-80
2023/11/23 07:43:30;;;;;;;5.77;3.30;;;5.10;99.90;;;;;;4250045;27;20447;-79
2023/11/23 07:45:34;;;;;;;6.90;3.50;;;5.10;99.90;;;;;;4251526;27;20461;-80
2023/11/23 07:47:37;;;;;;;5.10;2.80;;;5.10;99.90;;;;;;4264677;27;20451;-79
2023/11/23 07:49:38;;;;;;;6.07;3.20;;;5.20;99.90;;;;;;4258575;27;20444;-79
2023/11/23 07:51:42;;;;;;;5.90;2.83;;;5.20;99.90;;;;;;4264799;27;20489;-80
2023/11/23 07:53:44;;;;;;;8.50;3.33;;;5.30;99.90;;;;;;4253198;27;21185;-81
2023/11/23 07:55:45;;;;;;;5.50;2.43;;;5.30;99.90;;;;;;4242702;27;20464;-82
2023/11/23 07:57:51;;;;;;;4.20;2.77;;;5.40;99.90;;;;;;4240763;27;20469;-80
2023/11/23 07:59:56;;;;;;;4.87;2.60;;;5.50;99.90;;;;;;4244445;27;20441;-80
2023/11/23 08:02:01;;;;;;;5.50;3.00;;;5.50;99.90;;;;;;4242716;27;20437;-81
2023/11/23 08:04:03;;;;;;;5.70;2.80;;;5.50;99.90;;;;;;4239370;27;20441;-79
2023/11/23 08:06:05;;;;;;;6.83;3.50;;;5.50;99.90;;;;;;4244922;27;20446;-80
2023/11/23 08:08:10;;;;;;;7.30;3.30;;;5.40;99.90;;;;;;4242519;27;20484;-79
2023/11/23 08:10:15;;;;;;;7.33;3.40;;;5.50;99.90;;;;;;4240816;27;20437;-80
2023/11/23 08:12:17;;;;;;;6.33;3.10;;;5.50;99.90;;;;;;4241559;27;20859;-79
2023/11/23 08:14:19;;;;;;;7.07;3.47;;;5.50;99.90;;;;;;4242556;27;20528;-79
2023/11/23 08:16:21;;;;;;;6.77;3.10;;;5.60;99.90;;;;;;4236944;27;20445;-79
2023/11/23 08:18:24;;;;;;;6.37;3.40;;;5.50;99.90;;;;;;4246285;27;20476;-79
2023/11/23 08:20:26;;;;;;;7.10;4.00;;;5.50;99.90;;;;;;4238181;27;20445;-79
2023/11/23 08:22:28;;;;;;;5.53;3.33;;;5.50;99.90;;;;;;4240119;27;20791;-80
2023/11/23 08:24:32;;;;;;;4.97;3.00;;;5.50;99.90;;;;;;4243829;27;20473;-81
2023/11/23 08:26:35;;;;;;;7.83;3.63;;;5.50;99.90;;;;;;4247093;27;20480;-82
2023/11/23 08:28:37;;;;;;;6.00;3.30;;;5.60;99.90;;;;;;4246667;27;20441;-80
2023/11/23 08:30:39;;;;;;;7.57;3.23;;;5.50;99.90;;;;;;4237543;27;20528;-78
2023/11/23 08:32:41;;;;;;;6.83;2.83;;;5.50;99.90;;;;;;4239841;27;20449;-80
2023/11/23 08:34:42;;;;;;;5.00;3.20;;;5.50;99.90;;;;;;4238378;27;20460;-79
2023/11/23 08:36:44;;;;;;;6.00;3.37;;;5.50;99.90;;;;;;4223584;28;20911;-77
2023/11/23 08:38:46;;;;;;;4.87;2.97;;;5.50;99.90;;;;;;4242220;27;20253;-79
2023/11/23 08:40:50;;;;;;;6.00;3.00;;;5.50;99.90;;;;;;4242571;27;20494;-78
2023/11/23 08:42:52;;;;;;;5.57;3.00;;;5.60;99.90;;;;;;4242773;27;20492;-78
2023/11/23 08:44:54;;;;;;;4.50;2.67;;;5.50;99.90;;;;;;4241519;27;20481;-78
2023/11/23 08:46:57;;;;;;;5.13;3.00;;;5.60;99.90;;;;;;4244752;27;20461;-79
2023/11/23 08:49:02;;;;;;;4.30;2.73;;;5.60;99.90;;;;;;4245222;27;20528;-79
2023/11/23 08:51:04;;;;;;;4.67;3.07;;;5.60;99.90;;;;;;4243190;27;20482;-79
2023/11/23 08:53:06;;;;;;;5.50;3.10;;;5.70;99.90;;;;;;4245279;27;20444;-80
2023/11/23 08:55:09;;;;;;;5.27;3.03;;;5.70;99.90;;;;;;4245559;27;20440;-80
2023/11/23 08:57:12;;;;;;;7.37;2.60;;;5.70;99.90;;;;;;4233968;27;20538;-79
2023/11/23 08:59:14;;;;;;;6.47;3.20;;;5.70;99.90;;;;;;4234761;27;21074;-79
2023/11/23 09:01:18;;;;;;;4.50;3.00;;;5.70;99.90;;;;;;4242082;27;20440;-81
2023/11/23 09:03:20;;;;;;;4.87;2.70;;;5.80;99.90;;;;;;4239645;27;20503;-82
2023/11/23 09:05:22;;;;;;;4.37;2.97;;;5.80;99.90;;;;;;4245221;27;20462;-81
2023/11/23 09:07:24;;;;;;;5.20;2.77;;;5.80;99.90;;;;;;4238409;27;21102;-82
2023/11/23 09:09:26;;;;;;;6.07;2.70;;;5.90;99.90;;;;;;4245370;27;20440;-80
2023/11/23 09:11:28;;;;;;;4.83;2.73;;;5.90;99.90;;;;;;4242266;27;20551;-81
2023/11/23 09:13:32;;;;;;;5.83;3.43;;;5.90;99.90;;;;;;4240652;27;20454;-82
2023/11/23 09:15:36;;;;;;;4.30;2.73;;;6.00;99.90;;;;;;4244160;27;21032;-80
2023/11/23 09:17:38;;;;;;;6.43;3.07;;;6.00;99.90;;;;;;4245286;27;20468;-80
2023/11/23 09:19:40;;;;;;;5.10;3.13;;;5.90;99.90;;;;;;4243491;27;20470;-81
2023/11/23 09:21:46;;;;;;;5.37;3.03;;;6.10;99.90;;;;;;4244184;27;20506;-80
2023/11/23 09:23:48;;;;;;;4.97;2.60;;;6.10;99.90;;;;;;4238757;27;20462;-81
2023/11/23 09:25:50;;;;;;;7.53;3.33;;;6.10;99.90;;;;;;4241907;27;20528;-81
2023/11/23 09:27:52;;;;;;;4.83;2.90;;;6.20;99.90;;;;;;4247281;27;20471;-80
2023/11/23 09:29:56;;;;;;;5.37;2.63;;;6.20;99.90;;;;;;4241511;27;21039;-80
2023/11/23 09:31:58;;;;;;;5.40;2.97;;;6.30;99.90;;;;;;4241509;27;20497;-80
2023/11/23 09:34:00;;;;;;;6.23;3.13;;;6.30;99.90;;;;;;4241912;27;20447;-81
2023/11/23 09:36:02;;;;;;;4.70;2.83;;;6.30;99.90;;;;;;4241593;27;20963;-81
2023/11/23 09:38:04;;;;;;;6.53;3.17;;;6.30;99.90;;;;;;4245981;27;20456;-81
2023/11/23 09:40:09;;;;;;;6.10;2.90;;;6.30;99.90;;;;;;4242060;27;20502;-81
2023/11/23 09:42:15;;;;;;;6.90;2.90;;;6.40;99.90;;;;;;4241210;27;20984;-80
2023/11/23 09:44:18;;;;;;;4.00;2.50;;;6.30;99.90;;;;;;4237615;27;20449;-80
2023/11/23 09:46:21;;;;;;;6.20;3.00;;;6.40;99.90;;;;;;4243028;27;20508;-81
2023/11/23 09:48:28;;;;;;;5.07;2.70;;;6.40;99.90;;;;;;4239826;27;20594;-81
2023/11/23 09:50:31;;;;;;;6.50;3.23;;;6.40;99.90;;;;;;4242935;27;20860;-81
2023/11/23 09:52:33;;;;;;;4.93;2.90;;;6.40;99.90;;;;;;4241849;27;20503;-83
2023/11/23 09:54:34;;;;;;;5.67;3.03;;;6.40;99.90;;;;;;4241582;27;20465;-79
2023/11/23 09:56:37;;;;;;;7.30;3.20;;;6.40;99.90;;;;;;4244640;27;20208;-82
2023/11/23 09:58:38;;;;;;;6.97;3.50;;;6.50;99.90;;;;;;4247453;27;20867;-83
2023/11/23 10:00:40;;;;;;;8.10;3.40;;;6.50;99.90;;;;;;4242986;27;20803;-79
2023/11/23 10:02:49;;;;;;;4.63;2.80;;;6.50;99.90;;;;;;4242117;27;20474;-81
2023/11/23 10:04:52;;;;;;;6.37;3.50;;;6.60;99.90;;;;;;4237699;27;20851;-79
2023/11/23 10:06:54;;;;;;;5.60;2.83;;;6.60;99.90;;;;;;4239242;27;20585;-79
2023/11/23 10:08:59;;;;;;;4.73;2.90;;;6.60;99.90;;;;;;4243163;27;20818;-78
2023/11/23 10:11:02;;;;;;;5.00;3.00;;;6.60;99.90;;;;;;4241832;27;20271;-85
2023/11/23 10:13:06;;;;;;;4.57;3.13;;;6.70;99.90;;;;;;4237575;27;20469;-79
2023/11/23 10:15:10;;;;;;;6.57;3.17;;;6.70;99.90;;;;;;4253390;27;20264;-79
2023/11/23 10:17:12;;;;;;;5.83;3.43;;;6.70;99.90;;;;;;4249445;27;20291;-81
2023/11/23 10:19:21;;;;;;;6.93;3.33;;;6.80;99.90;;;;;;4245943;27;20204;-78
2023/11/23 10:21:24;;;;;;;6.67;4.10;;;6.80;99.90;;;;;;4244118;27;20449;-82
2023/11/23 10:23:25;;;;;;;5.20;3.20;;;6.90;99.90;;;;;;4243475;27;20282;-79
2023/11/23 10:25:31;;;;;;;6.00;3.50;;;6.90;99.90;;;;;;4236927;27;20483;-80
2023/11/23 10:27:33;;;;;;;6.23;3.53;;;6.90;99.90;;;;;;4240781;27;20278;-81
2023/11/23 10:29:35;;;;;;;5.50;3.47;;;7.00;99.90;;;;;;4242015;27;20449;-80
2023/11/23 10:31:37;;;;;;;7.20;3.53;;;7.00;99.90;;;;;;4239563;27;20236;-80
2023/11/23 10:33:42;;;;;;;7.93;3.67;;;7.00;99.90;;;;;;4241732;27;20215;-79
2023/11/23 10:35:50;;;;;;;7.30;3.50;;;7.10;99.90;;;;;;4245438;27;20717;-83
2023/11/23 10:37:54;;;;;;;7.27;3.30;;;7.10;99.90;;;;;;4236093;27;20228;-78
2023/11/23 10:39:57;;;;;;;5.37;3.60;;;7.20;99.90;;;;;;4237155;27;20197;-81
2023/11/23 10:42:00;;;;;;;7.50;3.77;;;7.20;99.90;;;;;;4237247;27;20201;-78
2023/11/23 10:44:03;;;;;;;5.33;3.60;;;7.20;99.90;;;;;;4247285;27;20278;-77
2023/11/23 10:46:08;;;;;;;6.77;3.30;;;7.20;99.90;;;;;;4245722;27;20277;-80
2023/11/23 10:48:12;;;;;;;5.90;3.40;;;7.30;99.90;;;;;;4245968;27;20231;-79